SKCG/CTG METAR and TAF weather

Enter ICAO airport designator
Station Type Date Time Source
SKCG METAR 2019/12/13 17:00 UTC NOAA

SKCG 131700Z 20007KT 9999 FEW017 32/23 A2979


Station Type Date Time Source
SKCG Decoded METAR 2019/12/13 17:00 UTC NOAA

Cartagena / Rafael Nunez, Colombia (SKCG) 10-27N 075-31W 12M
Dec 13, 2019 - 12:00 PM EST / 2019.12.13 1700 UTC
Wind: from the SSW (200 degrees) at 8 MPH (7 KT):0
Visibility: greater than 7 mile(s):0
Sky conditions: mostly clear
Temperature: 89 F (32 C)
Heat index: 96.8 F (36.0 C):1
Dew Point: 73 F (23 C)
Relative Humidity: 59%
Pressure (altimeter): 29.79 in. Hg (1008 hPa)
ob: SKCG 131700Z 20007KT 9999 FEW017 32/23 A2979
cycle: 17

Station Type Date Time Source
SKCG TAF 2019/12/13 18:42 UTC NOAA

TAF SKCG 131630Z 1318/1418 02005KT 9999 FEW020
BECMG 1319/1321 36015KT TX32/1318Z TN25/1411Z

Example: see airport list